Time;durP1;ratioP1;P1;durP2;ratioP2;P2;SDS_P1;SDS_P2;PMS_P1;PMS_P2;Temp;Humidity;BMP_temperature;BMP_pressure;BME280_temperature;BME280_humidity;BME280_pressure;Samples;Min_cycle;Max_cycle;Signal;HPM_P1;HPM_P2
2021/05/31 00:01:38;;;;;;;6.23;2.20;;;;;;;8.38;59.14;96795.31;4965715;28;20108;-84
2021/05/31 00:04:07;;;;;;;4.47;2.10;;;;;;;8.39;59.51;96797.00;4996515;28;20041;-84
2021/05/31 00:06:50;;;;;;;5.93;2.13;;;;;;;8.24;59.70;96791.22;5020633;28;20037;-84
2021/05/31 00:09:37;;;;;;;5.73;2.23;;;;;;;8.20;60.11;96787.22;5045310;28;20131;-85
2021/05/31 00:12:06;;;;;;;6.40;1.97;;;;;;;8.16;60.09;96784.03;5073291;28;20097;-85
2021/05/31 00:15:31;;;;;;;5.37;2.60;;;;;;;8.15;60.10;96784.16;5072988;28;20023;-84
2021/05/31 00:19:14;;;;;;;5.67;2.07;;;;;;;8.19;59.87;96780.34;5024500;28;20108;-85
2021/05/31 00:25:48;;;;;;;5.30;1.90;;;;;;;8.07;60.94;96782.19;4968635;28;20572;-85
2021/05/31 00:28:54;;;;;;;5.43;2.00;;;;;;;8.09;60.84;96775.03;4968422;28;20047;-85
2021/05/31 00:32:06;;;;;;;5.00;2.10;;;;;;;7.98;61.08;96778.56;4973096;28;20070;-85
2021/05/31 00:35:46;;;;;;;4.83;1.90;;;;;;;7.97;61.04;96781.31;4968875;28;20105;-85
2021/05/31 00:38:37;;;;;;;9.43;2.63;;;;;;;7.95;61.13;96775.38;4973710;28;20090;-85
2021/05/31 00:41:14;;;;;;;6.37;2.60;;;;;;;7.86;61.22;96770.91;4994533;28;20071;-85
2021/05/31 00:44:43;;;;;;;4.40;2.00;;;;;;;7.85;61.53;96779.75;5057498;28;20041;-85
2021/05/31 00:52:18;;;;;;;7.17;2.43;;;;;;;7.79;61.88;96773.22;5090405;28;20615;-85
2021/05/31 00:56:08;;;;;;;4.07;2.07;;;;;;;7.79;61.54;96778.47;5073841;28;20047;-84
2021/05/31 01:00:02;;;;;;;5.80;2.40;;;;;;;7.67;62.21;96775.06;5101528;28;20043;-85
2021/05/31 01:34:19;;;;;;;5.27;2.43;;;;;;;7.32;64.54;96763.13;4982667;28;20092;-82
2021/05/31 01:50:07;;;;;;;4.63;2.22;;;;;;;7.08;65.73;96763.34;4917453;29;20179;-85
2021/05/31 01:53:15;;;;;;;4.87;2.30;;;;;;;7.18;65.56;96763.44;4865435;29;20118;-85
2021/05/31 01:59:53;;;;;;;5.33;2.40;;;;;;;7.08;66.40;96758.09;5002577;28;20049;-85
2021/05/31 02:07:13;;;;;;;6.03;2.53;;;;;;;7.04;66.46;96761.09;5086175;28;20049;-85
2021/05/31 02:10:24;;;;;;;5.87;2.30;;;;;;;7.04;66.71;96753.22;5079774;28;20077;-85
2021/05/31 02:13:40;;;;;;;7.17;2.83;;;;;;;6.99;66.75;96752.78;5058355;28;20482;-84
2021/05/31 02:17:49;;;;;;;4.67;2.03;;;;;;;6.94;67.12;96752.31;5024418;28;20045;-85
2021/05/31 02:28:36;;;;;;;6.57;2.80;;;;;;;6.71;68.17;96744.56;4895326;29;20488;-85
2021/05/31 02:34:56;;;;;;;6.13;2.37;;;;;;;6.57;68.52;96750.03;4943996;29;20775;-85
2021/05/31 02:37:35;;;;;;;6.23;2.40;;;;;;;6.51;69.30;96740.91;4933638;29;20032;-85
2021/05/31 02:44:17;;;;;;;4.33;2.20;;;;;;;6.56;68.80;96741.38;4831880;29;20042;-85
2021/05/31 02:47:52;;;;;;;7.47;3.00;;;;;;;6.65;68.66;96731.16;4894675;29;20040;-85
2021/05/31 02:51:35;;;;;;;4.73;2.60;;;;;;;6.55;69.58;96731.06;4888596;29;20039;-85
2021/05/31 03:14:03;;;;;;;5.97;3.03;;;;;;;6.36;71.26;96721.22;4926129;29;20572;-85
2021/05/31 03:29:11;;;;;;;5.20;2.37;;;;;;;6.48;69.43;96727.28;4991488;28;20073;-84
2021/05/31 03:44:24;;;;;;;8.10;2.90;;;;;;;6.47;70.08;96736.03;4971605;28;20058;-85
2021/05/31 04:02:51;;;;;;;5.97;2.63;;;;;;;6.68;69.46;96731.75;5000561;28;20041;-85
2021/05/31 04:13:18;;;;;;;5.73;2.60;;;;;;;6.92;69.64;96728.09;5053604;28;20087;-84
2021/05/31 04:20:05;;;;;;;6.17;3.10;;;;;;;7.04;67.76;96719.25;5013375;28;20057;-85
2021/05/31 04:23:13;;;;;;;;;;;;;;;6.99;68.74;96722.25;5036256;28;20129;-85
2021/05/31 04:25:56;;;;;;;5.90;3.03;;;;;;;6.96;69.07;96721.66;5024835;28;19923;-85
2021/05/31 04:28:28;;;;;;;5.60;3.33;;;;;;;6.96;68.79;96719.88;5067781;28;20035;-85
2021/05/31 04:31:07;;;;;;;5.37;2.70;;;;;;;7.06;68.99;96712.09;5080533;28;20035;-84
2021/05/31 04:33:51;;;;;;;6.40;2.90;;;;;;;7.18;68.40;96712.91;5070763;28;20024;-85
2021/05/31 04:36:48;;;;;;;6.33;3.00;;;;;;;7.17;68.71;96714.66;5074606;28;20094;-85
2021/05/31 04:39:35;;;;;;;6.53;3.20;;;;;;;7.37;67.94;96714.81;5064419;28;20709;-85
2021/05/31 04:42:02;;;;;;;7.10;3.10;;;;;;;7.49;67.34;96709.38;5060087;28;20608;-84
2021/05/31 04:44:56;;;;;;;4.67;2.53;;;;;;;7.57;67.23;96703.50;5077566;28;20024;-85
2021/05/31 04:47:34;;;;;;;5.80;3.07;;;;;;;7.61;67.06;96702.28;5035557;28;20478;-85
2021/05/31 04:50:10;;;;;;;9.37;6.23;;;;;;;7.79;66.85;96703.34;5097099;28;20040;-85
2021/05/31 04:52:45;;;;;;;6.07;3.30;;;;;;;7.82;67.43;96710.13;5070672;28;20123;-85
2021/05/31 04:55:16;;;;;;;8.17;2.90;;;;;;;7.94;66.00;96710.84;5063725;28;20031;-84
2021/05/31 04:57:55;;;;;;;7.63;3.00;;;;;;;8.05;65.84;96702.94;5066753;28;20028;-85
2021/05/31 05:00:25;;;;;;;5.60;2.63;;;;;;;8.24;65.63;96705.59;5071220;28;20032;-83
2021/05/31 05:02:51;;;;;;;4.80;2.97;;;;;;;8.30;65.52;96711.28;5066249;28;20038;-85
2021/05/31 05:05:22;;;;;;;4.57;2.60;;;;;;;8.47;65.13;96715.91;5061392;28;20040;-84
2021/05/31 05:08:03;;;;;;;4.90;2.80;;;;;;;8.63;65.41;96715.41;5066467;28;20027;-85
2021/05/31 05:11:03;;;;;;;6.70;3.30;;;;;;;8.59;65.52;96714.00;5074648;28;20040;-85
2021/05/31 05:13:55;;;;;;;5.63;2.80;;;;;;;8.81;64.35;96715.53;5093777;28;20054;-85
2021/05/31 05:16:36;;;;;;;5.80;2.93;;;;;;;9.01;63.87;96713.78;5060291;28;20032;-85
2021/05/31 05:19:21;;;;;;;5.37;2.80;;;;;;;9.16;63.66;96713.22;5055053;28;20039;-85
2021/05/31 05:21:47;;;;;;;6.70;3.20;;;;;;;9.30;63.30;96713.78;5056608;28;20063;-85
2021/05/31 05:24:21;;;;;;;6.57;2.87;;;;;;;9.52;62.43;96716.06;5061663;28;20020;-84
2021/05/31 05:30:32;;;;;;;5.67;3.20;;;;;;;9.62;62.15;96716.06;5091130;28;20043;-83
2021/05/31 05:33:25;;;;;;;5.23;2.87;;;;;;;9.80;62.13;96718.81;5084958;28;20040;-84
2021/05/31 05:46:11;;;;;;;6.00;3.17;;;;;;;10.28;60.51;96717.81;5071143;28;20036;-84
2021/05/31 05:48:48;;;;;;;5.73;3.37;;;;;;;10.49;59.71;96722.84;5092566;28;20028;-85
2021/05/31 05:51:43;;;;;;;4.40;2.60;;;;;;;10.87;59.19;96718.34;5083490;28;20039;-85
2021/05/31 05:58:54;;;;;;;;;;;;;;;;;;;;;
2021/05/31 06:03:02;;;;;;;;;;;;;;;;;;;;;
2021/05/31 06:14:23;;;;;;;5.47;2.83;;;;;;;12.17;56.09;96719.34;5011708;28;20165;-86
2021/05/31 06:20:59;;;;;;;5.10;3.20;;;;;;;12.13;56.38;96722.44;5006196;28;20057;-86
2021/05/31 06:23:59;;;;;;;7.27;3.60;;;;;;;12.88;56.05;96723.41;4995132;28;20052;-86
2021/05/31 06:30:53;;;;;;;6.87;2.87;;;;;;;13.38;52.64;96727.81;4951504;28;20049;-88
2021/05/31 06:34:00;;;;;;;;;;;;;;;13.44;53.24;96715.72;5014280;28;20034;-88
2021/05/31 06:36:39;;;;;;;6.83;2.83;;;;;;;13.61;52.12;96708.63;5006506;28;19935;-87
2021/05/31 06:39:54;;;;;;;5.00;2.90;;;;;;;13.91;49.94;96713.19;5003031;28;20045;-87
2021/05/31 06:42:31;;;;;;;4.90;3.13;;;;;;;13.90;49.11;96714.19;5059885;28;20043;-87
2021/05/31 06:45:26;;;;;;;7.33;3.20;;;;;;;14.01;48.86;96706.91;5072277;28;20032;-88
2021/05/31 06:48:26;;;;;;;5.03;2.70;;;;;;;14.72;47.82;96705.19;5060125;28;20039;-88
2021/05/31 06:52:10;;;;;;;;;;;;;;;;;;;;;
2021/05/31 06:58:08;;;;;;;6.03;3.23;;;;;;;14.91;46.63;96714.53;4967250;28;20045;-87
2021/05/31 07:00:43;;;;;;;5.67;3.53;;;;;;;15.00;46.17;96716.94;4969006;28;20042;-87
2021/05/31 07:03:09;;;;;;;5.73;2.83;;;;;;;15.19;46.50;96715.69;5045135;28;20043;-88
2021/05/31 07:05:42;;;;;;;7.63;4.20;;;;;;;15.23;45.16;96719.63;5035950;28;20052;-87
2021/05/31 07:12:06;;;;;;;10.20;3.50;;;;;;;16.45;42.58;96708.88;5068776;28;20042;-88
2021/05/31 07:14:53;;;;;;;7.47;3.37;;;;;;;17.02;41.34;96710.81;5056890;28;20037;-88
2021/05/31 07:17:33;;;;;;;5.50;3.27;;;;;;;16.69;41.68;96716.53;5044992;28;20079;-88
2021/05/31 07:20:39;;;;;;;5.03;3.00;;;;;;;17.06;41.50;96717.41;5036794;28;20032;-88
2021/05/31 07:23:15;;;;;;;6.83;2.77;;;;;;;15.91;42.60;96715.25;5060485;28;20096;-86
2021/05/31 07:26:32;;;;;;;7.67;2.67;;;;;;;16.69;41.19;96705.91;5058980;28;20068;-87
2021/05/31 07:33:41;;;;;;;4.10;2.50;;;;;;;15.77;42.56;96710.75;5083582;28;20067;-86
2021/05/31 07:36:07;;;;;;;5.07;2.70;;;;;;;16.54;42.11;96707.78;5058478;28;20062;-86
2021/05/31 07:38:35;;;;;;;4.07;2.40;;;;;;;16.55;40.39;96704.09;5093032;28;20020;-86
2021/05/31 07:49:40;;;;;;;4.57;2.80;;;;;;;17.12;39.07;96703.34;5045954;28;20062;-87
2021/05/31 07:52:19;;;;;;;4.23;2.40;;;;;;;16.53;39.94;96710.59;5091771;28;20028;-84
2021/05/31 07:54:47;;;;;;;5.20;2.50;;;;;;;17.29;39.30;96705.78;5095322;28;20043;-84
2021/05/31 07:57:13;;;;;;;6.37;4.13;;;;;;;18.47;35.60;96698.88;5087298;28;20031;-87
2021/05/31 07:59:38;;;;;;;5.20;3.63;;;;;;;18.34;38.28;96702.31;5087639;28;20027;-87
2021/05/31 08:02:04;;;;;;;5.47;3.33;;;;;;;19.08;35.75;96697.13;5064461;28;20046;-89
2021/05/31 08:04:30;;;;;;;7.15;3.00;;;;;;;20.53;32.61;96691.97;5068219;28;20028;-86
2021/05/31 08:06:59;;;;;;;3.47;2.00;;;;;;;19.10;35.01;96702.22;5075975;28;20039;-87
2021/05/31 08:09:25;;;;;;;3.97;2.20;;;;;;;17.63;37.98;96707.72;5071730;28;20039;-87
2021/05/31 08:11:51;;;;;;;3.90;2.03;;;;;;;18.92;35.23;96702.81;5065439;28;20015;-87
2021/05/31 08:14:16;;;;;;;5.90;2.58;;;;;;;18.43;37.06;96709.13;5065668;28;20015;-88
2021/05/31 08:16:42;;;;;;;4.45;2.30;;;;;;;18.95;34.90;96696.25;5064790;28;20043;-87
2021/05/31 08:19:08;;;;;;;5.28;2.40;;;;;;;19.06;33.71;96699.16;5064388;28;20119;-87
2021/05/31 08:21:34;;;;;;;5.57;2.63;;;;;;;17.41;38.44;96713.06;5078712;28;20020;-87
2021/05/31 08:23:59;;;;;;;3.78;2.20;;;;;;;17.72;38.21;96716.41;5078006;28;20031;-87
2021/05/31 08:26:25;;;;;;;3.95;2.25;;;;;;;18.64;35.84;96700.19;5081936;28;20123;-87
2021/05/31 08:28:51;;;;;;;4.50;2.92;;;;;;;17.13;37.35;96710.31;5109584;28;20036;-87
2021/05/31 08:31:17;;;;;;;4.72;2.35;;;;;;;18.04;36.63;96710.53;5079508;28;20016;-87
2021/05/31 08:33:43;;;;;;;4.07;2.55;;;;;;;17.72;35.72;96700.44;5101453;28;20055;-87
2021/05/31 08:36:09;;;;;;;3.60;2.17;;;;;;;18.15;35.42;96698.53;5070615;28;20024;-87
2021/05/31 08:38:35;;;;;;;4.00;2.05;;;;;;;18.97;34.02;96700.34;5068335;28;20028;-87
2021/05/31 08:41:01;;;;;;;3.38;1.80;;;;;;;18.61;34.72;96690.78;5064243;28;20474;-88
2021/05/31 08:43:27;;;;;;;3.95;2.28;;;;;;;19.72;32.54;96690.44;5042290;28;20116;-87
2021/05/31 08:50:25;;;;;;;4.32;2.42;;;;;;;18.11;34.02;96686.63;5060709;28;20039;-87
2021/05/31 08:53:37;;;;;;;4.20;2.38;;;;;;;18.79;33.75;96692.09;4987317;28;20070;-87
2021/05/31 09:05:17;;;;;;;3.72;2.30;;;;;;;20.35;32.79;96673.91;4875750;29;20078;-88
2021/05/31 09:09:34;;;;;;;2.70;1.83;;;;;;;20.31;30.77;96680.72;4891550;29;20052;-87
2021/05/31 09:12:55;;;;;;;3.40;2.10;;;;;;;19.80;32.06;96673.41;4798822;29;20471;-87
2021/05/31 09:42:29;;;;;;;3.83;2.00;;;;;;;20.26;32.75;96664.50;4845911;29;20033;-86
2021/05/31 10:01:45;;;;;;;4.72;2.35;;;;;;;20.85;30.90;96676.84;4926761;29;20071;-86
2021/05/31 10:16:36;;;;;;;3.70;2.20;;;;;;;19.52;31.84;96668.25;4748846;30;20075;-87
2021/05/31 10:24:28;;;;;;;4.65;2.30;;;;;;;21.74;29.09;96656.31;4825731;29;20070;-86
2021/05/31 10:32:22;;;;;;;5.25;2.30;;;;;;;22.86;27.65;96642.72;4784754;29;20373;-86
2021/05/31 10:40:18;;;;;;;4.68;3.17;;;;;;;22.42;28.89;96643.91;4756484;30;20078;-86
2021/05/31 10:48:09;;;;;;;3.92;2.50;;;;;;;22.48;28.25;96643.03;4772043;30;20081;-87
2021/05/31 10:59:32;;;;;;;5.82;2.72;;;;;;;21.48;31.93;96643.97;4786902;29;20092;-87
2021/05/31 11:02:32;;;;;;;4.50;2.30;;;;;;;23.64;27.76;96635.63;4760385;30;20234;-87
2021/05/31 11:05:16;;;;;;;5.88;2.30;;;;;;;21.88;32.64;96647.13;4763608;30;20066;-87
2021/05/31 11:08:41;;;;;;;4.15;2.50;;;;;;;21.82;29.25;96647.19;4826383;29;20052;-86
2021/05/31 11:15:51;;;;;;;3.45;2.08;;;;;;;22.01;29.92;96648.84;5007015;28;20464;-87
2021/05/31 11:19:00;;;;;;;5.30;1.70;;;;;;;21.89;30.25;96648.75;4981635;28;20049;-87
2021/05/31 11:37:43;;;;;;;3.53;2.25;;;;;;;19.95;32.20;96651.81;4884835;29;20077;-86
2021/05/31 11:41:25;;;;;;;4.20;2.58;;;;;;;23.35;27.20;96626.59;4887347;29;20424;-87
2021/05/31 11:52:51;;;;;;;4.47;2.25;;;;;;;23.24;28.08;96626.34;4940131;28;20066;-86
2021/05/31 11:55:28;;;;;;;6.50;2.40;;;;;;;23.24;27.66;96617.47;5035724;28;20578;-86
2021/05/31 11:57:54;;;;;;;3.53;2.10;;;;;;;23.13;27.27;96618.25;5052659;28;20050;-86
2021/05/31 12:00:23;;;;;;;4.68;1.95;;;;;;;23.94;27.52;96606.84;5068604;28;20061;-87
2021/05/31 12:02:49;;;;;;;3.05;1.77;;;;;;;22.73;28.61;96614.22;5066598;28;20113;-87
2021/05/31 12:05:27;;;;;;;3.95;1.90;;;;;;;24.60;25.63;96606.59;5076268;28;20016;-87
2021/05/31 12:07:53;;;;;;;4.28;2.20;;;;;;;24.10;26.93;96596.41;5094427;28;20027;-87
2021/05/31 12:10:19;;;;;;;3.72;1.92;;;;;;;25.28;25.10;96597.63;5081749;28;20022;-87
2021/05/31 12:12:48;;;;;;;4.80;1.63;;;;;;;22.85;27.72;96606.25;5076568;28;20119;-87
2021/05/31 12:15:17;;;;;;;4.68;2.17;;;;;;;23.81;25.98;96604.38;5070291;28;20402;-87
2021/05/31 12:17:43;;;;;;;4.72;2.33;;;;;;;22.94;26.37;96612.16;5062855;28;20028;-87
2021/05/31 12:20:09;;;;;;;4.72;2.00;;;;;;;22.41;26.74;96607.44;5086308;28;20024;-87
2021/05/31 12:22:38;;;;;;;3.47;2.03;;;;;;;22.63;27.26;96610.47;5088414;28;20031;-87
2021/05/31 12:25:10;;;;;;;2.95;1.80;;;;;;;22.68;28.33;96611.44;5068561;28;20055;-86
2021/05/31 12:27:40;;;;;;;5.03;2.40;;;;;;;21.84;30.01;96613.78;5075660;28;20091;-87
2021/05/31 12:30:09;;;;;;;5.28;2.83;;;;;;;23.15;27.88;96600.88;5076347;28;20032;-86
2021/05/31 12:32:36;;;;;;;4.50;2.00;;;;;;;22.12;29.91;96597.22;5064059;28;20028;-86
2021/05/31 12:35:04;;;;;;;6.30;2.03;;;;;;;22.23;28.80;96603.75;5060039;28;20028;-80
2021/05/31 12:37:35;;;;;;;4.80;2.20;;;;;;;21.53;30.41;96593.31;5068698;28;20040;-87
2021/05/31 12:40:11;;;;;;;4.22;2.40;;;;;;;22.02;30.56;96598.78;5085035;28;20032;-87
2021/05/31 12:42:37;;;;;;;2.78;1.85;;;;;;;23.02;28.96;96588.47;5076768;28;20100;-86
2021/05/31 12:45:08;;;;;;;6.30;2.28;;;;;;;23.04;29.51;96593.63;5082598;28;20401;-87
2021/05/31 12:47:36;;;;;;;5.32;2.13;;;;;;;21.46;31.59;96600.53;5069840;28;20089;-87
2021/05/31 12:50:06;;;;;;;4.18;2.30;;;;;;;22.44;30.40;96583.69;5068355;28;20438;-87
2021/05/31 12:52:37;;;;;;;4.28;2.53;;;;;;;23.04;29.40;96590.97;5071030;28;20020;-87
2021/05/31 12:55:06;;;;;;;3.47;2.15;;;;;;;23.16;29.05;96589.09;5063399;28;20256;-86
2021/05/31 12:57:46;;;;;;;3.80;1.85;;;;;;;22.88;30.02;96576.28;5071848;28;20031;-87
2021/05/31 13:00:16;;;;;;;4.20;2.00;;;;;;;23.49;27.41;96579.69;5069654;28;20031;-86
2021/05/31 13:02:47;;;;;;;3.78;2.00;;;;;;;23.60;27.15;96570.00;5088019;28;20028;-86
2021/05/31 13:05:15;;;;;;;3.00;1.80;;;;;;;23.25;27.10;96568.94;5072212;28;20429;-86
2021/05/31 13:07:50;;;;;;;3.97;1.95;;;;;;;22.11;30.02;96579.53;5064058;28;20028;-86
2021/05/31 13:10:22;;;;;;;3.78;1.83;;;;;;;22.52;29.60;96567.28;5085058;28;20447;-86
2021/05/31 13:12:56;;;;;;;4.63;1.90;;;;;;;23.12;27.87;96573.69;5066175;28;20035;-80
2021/05/31 13:15:35;;;;;;;3.38;1.80;;;;;;;23.29;27.20;96567.44;5060938;28;20037;-80
2021/05/31 13:18:05;;;;;;;2.65;1.95;;;;;;;22.23;28.86;96568.06;5071990;28;20088;-80
2021/05/31 13:20:33;;;;;;;6.63;1.90;;;;;;;21.71;29.72;96563.06;5061973;28;20032;-80
2021/05/31 13:22:59;;;;;;;3.55;1.90;;;;;;;22.23;28.75;96571.59;5061877;28;20029;-79
2021/05/31 13:25:26;;;;;;;3.38;1.73;;;;;;;22.64;28.09;96563.88;5080210;28;20066;-79
2021/05/31 13:27:53;;;;;;;4.22;1.90;;;;;;;23.10;28.09;96557.00;5056329;28;20032;-79
2021/05/31 13:30:23;;;;;;;3.53;2.38;;;;;;;21.30;27.82;96561.78;5057083;28;20064;-79
2021/05/31 13:33:05;;;;;;;4.03;2.20;;;;;;;22.13;29.33;96555.16;5083714;28;20059;-79
2021/05/31 13:39:32;;;;;;;3.03;1.88;;;;;;;23.29;29.02;96547.81;5100233;28;20096;-79
2021/05/31 13:43:12;;;;;;;4.25;2.08;;;;;;;22.04;30.98;96560.03;5014353;28;20052;-80
2021/05/31 13:45:42;;;;;;;3.83;1.90;;;;;;;22.58;29.74;96552.19;5070256;28;20252;-79
2021/05/31 13:48:34;;;;;;;3.17;2.30;;;;;;;21.86;29.55;96550.16;5077075;28;20211;-79
2021/05/31 13:51:03;;;;;;;7.50;2.00;;;;;;;21.20;32.72;96548.06;5046478;28;20490;-80
2021/05/31 13:53:32;;;;;;;5.82;2.30;;;;;;;22.62;29.91;96545.31;5083807;28;20402;-79
2021/05/31 13:55:58;;;;;;;4.68;2.00;;;;;;;22.85;28.77;96541.06;5067006;28;20469;-79
2021/05/31 13:58:30;;;;;;;5.43;1.90;;;;;;;22.79;27.81;96538.25;5088270;28;20746;-79
2021/05/31 14:01:05;;;;;;;3.92;1.85;;;;;;;22.60;27.51;96539.34;5064779;28;20127;-79
2021/05/31 14:03:31;;;;;;;2.72;1.83;;;;;;;22.22;28.89;96536.97;5057844;28;20064;-79
2021/05/31 14:05:58;;;;;;;6.15;2.08;;;;;;;22.22;30.75;96534.31;5056609;28;20115;-79
2021/05/31 14:08:24;;;;;;;4.57;2.10;;;;;;;22.74;28.25;96523.91;5067170;28;20091;-79
2021/05/31 14:10:51;;;;;;;4.65;1.90;;;;;;;22.55;30.75;96529.31;5062011;28;20032;-79
2021/05/31 14:13:17;;;;;;;3.20;2.05;;;;;;;21.12;30.48;96538.44;5050022;28;20116;-79
2021/05/31 14:15:43;;;;;;;4.32;2.28;;;;;;;20.95;30.94;96534.66;5060912;28;20615;-79
2021/05/31 14:18:09;;;;;;;3.35;2.08;;;;;;;21.69;31.70;96527.66;5059947;28;20136;-79
2021/05/31 14:20:35;;;;;;;4.70;1.98;;;;;;;21.85;31.99;96528.94;5060399;28;20031;-79
2021/05/31 14:23:03;;;;;;;4.30;2.40;;;;;;;22.01;29.42;96525.66;5058662;28;20089;-79
2021/05/31 14:25:30;;;;;;;5.72;2.05;;;;;;;22.00;29.96;96528.53;5072551;28;20032;-79
2021/05/31 14:27:58;;;;;;;6.22;1.98;;;;;;;21.71;29.62;96525.59;5074501;28;20023;-79
2021/05/31 14:30:25;;;;;;;3.78;1.58;;;;;;;21.93;30.72;96530.47;5067632;28;20114;-78
2021/05/31 14:32:57;;;;;;;6.18;2.22;;;;;;;21.65;30.40;96532.63;5059922;28;20122;-78
2021/05/31 14:35:23;;;;;;;3.65;2.17;;;;;;;21.59;30.19;96525.50;5055775;28;20070;-79
2021/05/31 14:37:50;;;;;;;3.20;1.85;;;;;;;20.89;31.58;96533.72;5066606;28;20036;-79
2021/05/31 14:40:16;;;;;;;3.95;2.35;;;;;;;20.93;31.18;96534.91;5066436;28;20036;-79
2021/05/31 14:42:43;;;;;;;6.10;1.90;;;;;;;20.91;30.37;96526.28;5058697;28;20485;-79
2021/05/31 14:45:11;;;;;;;11.50;6.65;;;;;;;21.06;31.44;96525.13;5098529;28;20048;-78
2021/05/31 14:47:40;;;;;;;8.57;5.38;;;;;;;21.35;30.50;96510.31;5081887;28;20064;-79
2021/05/31 14:50:10;;;;;;;4.82;2.55;;;;;;;21.44;29.73;96516.19;5076224;28;20456;-78
2021/05/31 14:52:35;;;;;;;3.67;2.00;;;;;;;20.59;29.91;96516.63;5082060;28;20024;-79
2021/05/31 14:55:04;;;;;;;3.67;2.00;;;;;;;21.02;29.63;96506.03;5080205;28;20055;-79
2021/05/31 14:57:31;;;;;;;4.35;1.65;;;;;;;21.33;29.99;96507.81;5069432;28;20036;-79
2021/05/31 14:59:57;;;;;;;4.32;1.92;;;;;;;20.01;31.71;96518.31;5065875;28;20477;-79
2021/05/31 15:02:23;;;;;;;3.05;1.75;;;;;;;19.72;31.62;96524.19;5090165;28;20513;-79
2021/05/31 15:04:49;;;;;;;3.75;2.15;;;;;;;19.96;31.83;96520.81;5085293;28;20355;-79
2021/05/31 15:07:15;;;;;;;2.33;1.77;;;;;;;20.16;31.70;96518.06;5061156;28;20078;-79
2021/05/31 15:09:42;;;;;;;4.30;1.65;;;;;;;20.23;32.69;96513.50;5083008;28;20493;-79
2021/05/31 15:12:08;;;;;;;2.80;1.70;;;;;;;19.89;33.11;96521.88;5064251;28;20035;-79
2021/05/31 15:14:38;;;;;;;4.50;1.92;;;;;;;20.32;31.32;96516.78;5060545;28;20032;-79
2021/05/31 15:17:04;;;;;;;3.22;1.73;;;;;;;19.44;31.37;96524.41;5060775;28;20032;-79
2021/05/31 15:19:36;;;;;;;5.35;2.33;;;;;;;20.09;31.83;96506.59;5061175;28;20024;-79
2021/05/31 15:22:02;;;;;;;3.33;2.00;;;;;;;19.81;32.69;96509.56;5077120;28;20035;-79
2021/05/31 15:24:28;;;;;;;3.60;2.08;;;;;;;19.58;33.52;96515.34;5066516;28;20102;-79
2021/05/31 15:26:53;;;;;;;3.33;1.85;;;;;;;19.68;32.36;96512.28;5063883;28;20024;-79
2021/05/31 15:29:19;;;;;;;6.20;2.03;;;;;;;19.97;32.49;96505.63;5072560;28;20401;-78
2021/05/31 15:31:45;;;;;;;5.80;1.90;;;;;;;20.17;32.71;96503.69;5056402;28;20442;-79
2021/05/31 15:34:11;;;;;;;4.40;2.00;;;;;;;19.82;32.70;96500.56;5071855;28;20538;-79
2021/05/31 15:36:37;;;;;;;5.05;2.80;;;;;;;19.73;32.67;96502.63;5062735;28;20028;-79
2021/05/31 15:39:03;;;;;;;3.28;2.20;;;;;;;19.75;33.07;96503.25;5079338;28;20065;-79
2021/05/31 15:41:29;;;;;;;3.97;2.08;;;;;;;19.36;33.13;96505.97;5080109;28;20730;-79
2021/05/31 15:43:55;;;;;;;7.60;5.18;;;;;;;19.64;33.04;96503.06;5070974;28;20037;-79
2021/05/31 15:46:20;;;;;;;4.78;2.05;;;;;;;19.11;33.56;96509.25;5067952;28;20066;-79
2021/05/31 15:48:46;;;;;;;5.93;1.90;;;;;;;19.57;33.88;96510.22;5071562;28;20025;-79
2021/05/31 15:51:16;;;;;;;4.07;1.88;;;;;;;19.68;33.68;96504.28;5060959;28;20552;-79
2021/05/31 15:54:00;;;;;;;4.03;1.70;;;;;;;19.93;32.37;96497.22;5059052;28;20482;-77
2021/05/31 15:56:34;;;;;;;3.15;1.80;;;;;;;19.51;32.61;96502.03;5060464;28;20435;-78
2021/05/31 15:59:00;;;;;;;2.80;1.88;;;;;;;19.60;32.73;96512.50;5055321;28;20090;-77
2021/05/31 16:01:26;;;;;;;3.38;1.90;;;;;;;19.69;32.11;96500.59;5069360;28;20020;-77
2021/05/31 16:03:52;;;;;;;3.40;2.17;;;;;;;19.89;32.12;96506.69;5072083;28;20058;-78
2021/05/31 16:06:17;;;;;;;3.95;2.10;;;;;;;19.41;33.72;96501.63;5071686;28;20027;-77
2021/05/31 16:08:43;;;;;;;4.00;1.90;;;;;;;19.64;32.65;96498.53;5066291;28;20475;-77
2021/05/31 16:11:10;;;;;;;3.95;2.38;;;;;;;19.39;33.28;96492.22;5072410;28;20059;-86
2021/05/31 16:13:37;;;;;;;3.20;1.70;;;;;;;19.57;32.41;96503.03;5055514;28;20037;-87
2021/05/31 16:16:04;;;;;;;3.80;1.80;;;;;;;19.24;33.31;96503.91;5081883;28;20038;-86
2021/05/31 16:18:30;;;;;;;7.00;2.10;;;;;;;19.48;32.74;96493.63;5061219;28;20071;-78
2021/05/31 16:20:58;;;;;;;3.85;1.80;;;;;;;19.55;32.71;96489.94;5060097;28;20107;-86
2021/05/31 16:23:27;;;;;;;3.95;1.92;;;;;;;19.36;32.30;96495.31;5063571;28;20019;-86
2021/05/31 16:25:54;;;;;;;3.33;2.08;;;;;;;19.33;33.17;96493.06;5076729;28;20050;-87
2021/05/31 16:28:21;;;;;;;3.67;2.00;;;;;;;19.17;33.26;96492.44;5082178;28;20073;-86
2021/05/31 16:30:47;;;;;;;3.85;2.03;;;;;;;19.25;32.76;96491.44;5057875;28;20043;-87
2021/05/31 16:33:13;;;;;;;5.65;2.15;;;;;;;19.10;33.71;96490.81;5059767;28;20504;-87
2021/05/31 16:35:41;;;;;;;3.58;2.40;;;;;;;18.81;34.39;96488.38;5057060;28;20035;-86
2021/05/31 16:38:08;;;;;;;4.15;2.20;;;;;;;18.95;34.67;96481.22;5060830;28;20040;-85
2021/05/31 16:40:34;;;;;;;4.30;2.08;;;;;;;19.17;34.33;96481.78;5073990;28;20046;-86
2021/05/31 16:43:01;;;;;;;3.53;2.05;;;;;;;18.86;33.86;96481.63;5063846;28;20082;-86
2021/05/31 16:45:26;;;;;;;3.72;1.88;;;;;;;18.83;34.84;96475.66;5068959;28;20107;-86
2021/05/31 16:47:52;;;;;;;5.32;1.92;;;;;;;18.98;34.77;96482.63;5062435;28;20032;-86
2021/05/31 16:50:18;;;;;;;4.07;1.88;;;;;;;19.07;34.25;96486.72;5081976;28;20063;-77
2021/05/31 16:52:44;;;;;;;3.80;2.40;;;;;;;18.89;35.24;96489.19;5064229;28;20078;-77
2021/05/31 16:55:11;;;;;;;3.22;1.88;;;;;;;18.79;35.01;96489.59;5066558;28;20019;-86
2021/05/31 16:57:37;;;;;;;4.57;1.92;;;;;;;18.75;34.34;96485.72;5066016;28;20078;-86
2021/05/31 17:00:10;;;;;;;5.63;1.77;;;;;;;18.73;34.83;96480.56;5066963;28;20020;-86
2021/05/31 17:02:36;;;;;;;3.50;1.90;;;;;;;18.72;34.86;96478.94;5074403;28;20020;-87
2021/05/31 17:05:03;;;;;;;15.02;5.38;;;;;;;18.64;34.72;96480.94;5065639;28;20553;-78
2021/05/31 17:07:29;;;;;;;6.80;4.05;;;;;;;18.72;35.09;96478.94;5066129;28;20032;-77
2021/05/31 17:09:59;;;;;;;3.67;2.22;;;;;;;18.69;35.38;96467.84;5077616;28;20061;-77
2021/05/31 17:15:16;;;;;;;3.42;2.13;;;;;;;18.43;37.26;96480.09;5068351;28;20053;-77
2021/05/31 17:20:32;;;;;;;3.83;1.88;;;;;;;18.29;36.41;96476.59;5073435;28;20031;-77
2021/05/31 17:22:58;;;;;;;3.30;1.80;;;;;;;18.17;36.65;96483.53;5053685;28;20103;-76
2021/05/31 17:25:25;;;;;;;6.70;1.90;;;;;;;17.99;36.03;96478.78;5055087;28;20020;-86
2021/05/31 17:27:51;;;;;;;2.88;1.80;;;;;;;17.79;37.03;96477.88;5073349;28;20039;-86
2021/05/31 17:30:28;;;;;;;4.32;2.03;;;;;;;17.85;37.18;96483.22;5064743;28;20032;-87
2021/05/31 17:32:56;;;;;;;6.72;2.67;;;;;;;17.92;36.77;96479.78;5061067;28;20471;-86
2021/05/31 17:35:24;;;;;;;4.47;2.10;;;;;;;17.89;36.61;96476.47;5057932;28;20030;-86
2021/05/31 17:37:50;;;;;;;3.45;1.70;;;;;;;17.68;37.46;96469.41;5064752;28;20091;-87
2021/05/31 17:40:17;;;;;;;3.58;2.20;;;;;;;17.79;37.87;96472.56;5103736;28;20054;-87
2021/05/31 17:42:45;;;;;;;3.45;1.80;;;;;;;17.66;38.39;96479.41;5065260;28;20039;-87
2021/05/31 17:45:15;;;;;;;3.65;1.77;;;;;;;17.89;37.88;96478.31;5084420;28;20038;-86
2021/05/31 17:47:41;;;;;;;2.80;1.90;;;;;;;17.80;38.21;96480.31;5067935;28;20143;-77
2021/05/31 17:50:09;;;;;;;3.63;2.13;;;;;;;17.77;37.68;96477.25;5066270;28;20123;-77
2021/05/31 17:52:35;;;;;;;3.13;1.65;;;;;;;17.77;37.89;96490.53;5055444;28;20075;-76
2021/05/31 17:55:02;;;;;;;5.20;2.10;;;;;;;17.67;38.35;96485.56;5084975;28;20032;-86
2021/05/31 17:57:28;;;;;;;4.13;2.40;;;;;;;17.48;39.34;96486.28;5077877;28;20055;-86
2021/05/31 17:59:56;;;;;;;4.82;2.03;;;;;;;17.22;38.57;96482.44;5083808;28;20074;-86
2021/05/31 18:02:26;;;;;;;2.88;1.83;;;;;;;17.45;38.18;96482.19;5076781;28;20040;-86
2021/05/31 18:04:53;;;;;;;2.92;1.80;;;;;;;17.28;38.71;96483.53;5077628;28;20035;-86
2021/05/31 18:07:18;;;;;;;3.35;1.85;;;;;;;17.23;39.20;96485.94;5074550;28;20032;-86
2021/05/31 18:09:44;;;;;;;3.53;1.80;;;;;;;17.12;39.63;96479.31;5071180;28;20333;-86
2021/05/31 18:12:10;;;;;;;5.20;3.00;;;;;;;17.25;38.65;96483.91;5077397;28;20344;-86